SKBQ

Ernesto Cortissoz International Airport

Barranquilla, Colombia

SKBQ 242000Z 33004KT 9999 5000SW VCSH SCT012CB BKN200 30/26 A2978 RMK CB VCSH SW

Observed Flight Rules
Sep-24 @ 20:00 UTC (an hour ago)
 
Visual Flight Rules
Wind Visibility Clouds
330° at 4 knots 10,000+ meters
  • Scattered at 1,200' AGL
  • Broken at 20,000' AGL
Temperatures Readings
Current 30°C / 86°F
Dewpoint 26°C / 79°F
Humidity 79%
Altimeter 29.78" Hg
Pressure 1008 hPa
Elevation 10
Observed Flight Rules
Sep-24 @ 20:00 UTC
(an hour ago)
 
VFR
Wind Visibility
330° at 4 knots 10,000+ meters
Clouds
  • Scattered at 1,200' AGL
  • Broken at 20,000' AGL
Temperature Dewpoint
30°C / 86°F 26°C / 79°F
Humidity Altimeter Pressure
79% 29.78" Hg 1008 hPa